createdAt,value
2018-10-19T00:00:54.394Z,51.67
2018-10-19T00:03:27.278Z,44.83
2018-10-19T00:06:02.205Z,48.17
2018-10-19T00:08:32.546Z,50.63
2018-10-19T00:11:02.554Z,51.13
2018-10-19T00:13:32.561Z,48.67
2018-10-19T00:16:02.548Z,55.83
2018-10-19T00:18:32.898Z,59.47
2018-10-19T00:21:02.976Z,54.10
2018-10-19T00:23:35.924Z,62.80
2018-10-19T00:26:05.971Z,64.37
2018-10-19T00:28:35.927Z,52.40
2018-10-19T00:31:05.940Z,53.03
2018-10-19T00:33:36.070Z,52.53
2018-10-19T00:36:06.500Z,61.07
2018-10-19T00:38:37.267Z,49.70
2018-10-19T00:41:07.665Z,55.97
2018-10-19T00:43:37.692Z,59.17
2018-10-19T00:46:07.785Z,58.77
2018-10-19T00:48:37.803Z,66.57
2018-10-19T00:51:08.436Z,65.70
2018-10-19T00:53:38.861Z,64.07
2018-10-19T00:56:08.810Z,70.87
2018-10-19T00:58:38.851Z,69.30
2018-10-19T01:01:10.308Z,63.93
2018-10-19T01:03:40.877Z,64.57
2018-10-19T01:06:10.807Z,66.23
2018-10-19T01:08:40.756Z,73.63
2018-10-19T01:11:11.922Z,63.87
2018-10-19T01:13:41.850Z,58.67
2018-10-19T01:16:27.604Z,59.87
2018-10-19T01:18:57.981Z,59.13
2018-10-19T01:21:28.111Z,59.23
2018-10-19T01:23:58.199Z,66.93
2018-10-19T01:26:33.267Z,61.30
2018-10-19T01:29:03.465Z,65.50
2018-10-19T01:31:33.894Z,65.47
2018-10-19T01:34:04.469Z,72.13
2018-10-19T01:36:40.119Z,69.67
2018-10-19T01:39:11.091Z,58.37
2018-10-19T01:41:45.564Z,56.93
2018-10-19T01:44:16.224Z,62.77
2018-10-19T01:46:48.774Z,65.80
2018-10-19T01:49:20.632Z,70.80
2018-10-19T01:51:51.390Z,71.97
2018-10-19T01:54:21.727Z,71.87
2018-10-19T01:56:52.123Z,70.57
2018-10-19T01:59:22.699Z,66.00
2018-10-19T02:01:54.925Z,68.37
2018-10-19T02:04:25.476Z,70.90
2018-10-19T02:06:56.248Z,69.90
2018-10-19T02:09:36.798Z,70.63
2018-10-19T02:12:07.206Z,77.63
2018-10-19T02:14:38.497Z,78.60
2018-10-19T02:17:08.710Z,71.40
2018-10-19T02:19:39.269Z,77.40
2018-10-19T02:22:09.705Z,68.37
2018-10-19T02:24:41.311Z,67.27
2018-10-19T02:27:11.702Z,64.27
2018-10-19T02:29:42.087Z,73.70
2018-10-19T02:32:12.238Z,69.57
2018-10-19T02:34:42.691Z,66.97
2018-10-19T02:37:13.062Z,81.73
2018-10-19T02:39:44.235Z,78.70
2018-10-19T02:42:14.354Z,75.70
2018-10-19T02:44:44.759Z,64.30
2018-10-19T02:47:15.291Z,67.13
2018-10-19T02:49:46.305Z,63.60
2018-10-19T02:52:17.974Z,69.87
2018-10-19T02:54:49.807Z,76.07
2018-10-19T02:57:21.073Z,71.40
2018-10-19T02:59:51.856Z,71.17
2018-10-19T03:02:21.995Z,75.80
2018-10-19T03:04:52.014Z,69.57
2018-10-19T03:07:22.381Z,74.20
2018-10-19T03:09:53.862Z,71.37
2018-10-19T03:12:24.161Z,65.50
2018-10-19T03:14:54.532Z,79.97
2018-10-19T03:17:25.217Z,68.93
2018-10-19T03:19:55.302Z,67.33
2018-10-19T03:22:28.898Z,72.63
2018-10-19T03:24:59.177Z,68.30
2018-10-19T03:27:29.290Z,74.30
2018-10-19T03:30:00.757Z,75.77
2018-10-19T03:32:30.721Z,76.67
2018-10-19T03:35:00.785Z,79.00
2018-10-19T03:37:31.916Z,71.93
2018-10-19T03:40:02.426Z,67.90
2018-10-19T03:42:32.501Z,74.00
2018-10-19T03:45:02.631Z,79.80
2018-10-19T03:47:32.658Z,80.83
2018-10-19T03:50:02.747Z,78.77
2018-10-19T03:52:33.243Z,85.43
2018-10-19T03:55:28.018Z,82.80
2018-10-19T03:58:00.555Z,83.00
2018-10-19T04:00:30.875Z,72.47
2018-10-19T04:03:00.805Z,72.90
2018-10-19T04:05:30.986Z,78.03
2018-10-19T04:08:01.197Z,78.17
2018-10-19T04:10:32.317Z,81.27
2018-10-19T04:13:02.999Z,76.70
2018-10-19T04:15:33.711Z,78.03
2018-10-19T04:18:03.725Z,71.53
2018-10-19T04:20:33.676Z,74.23
2018-10-19T04:23:08.684Z,74.10
2018-10-19T04:25:49.253Z,73.13
2018-10-19T04:28:19.231Z,73.93
2018-10-19T04:30:49.208Z,82.73
2018-10-19T04:33:22.103Z,70.57
2018-10-19T04:35:52.556Z,72.90
2018-10-19T04:38:22.556Z,72.67
2018-10-19T04:40:52.542Z,75.93
2018-10-19T04:43:22.427Z,84.43
2018-10-19T04:45:52.525Z,85.90
2018-10-19T04:48:23.976Z,77.20
2018-10-19T04:50:54.419Z,82.50
2018-10-19T05:07:04.433Z,79.87
2018-10-19T05:09:34.578Z,85.57
2018-10-19T05:12:06.158Z,88.60
2018-10-19T05:14:36.335Z,82.37
2018-10-19T05:17:06.682Z,83.93
2018-10-19T05:19:36.803Z,100.47
2018-10-19T05:22:07.356Z,85.47
2018-10-19T05:24:37.538Z,93.43
2018-10-19T05:27:07.671Z,92.67
2018-10-19T05:29:42.093Z,89.47
2018-10-19T05:32:12.150Z,91.80
2018-10-19T05:34:44.678Z,94.33
2018-10-19T05:37:14.836Z,94.23
2018-10-19T05:39:44.958Z,89.57
2018-10-19T05:42:14.839Z,90.40
2018-10-19T05:44:51.535Z,88.53
2018-10-19T05:47:32.670Z,91.50
2018-10-19T05:50:03.242Z,89.90
2018-10-19T05:52:46.468Z,84.77
2018-10-19T05:55:16.527Z,84.37
2018-10-19T05:57:46.726Z,92.47
2018-10-19T06:00:18.085Z,93.07
2018-10-19T06:02:48.072Z,94.73
2018-10-19T06:05:17.926Z,90.77
2018-10-19T06:07:49.334Z,98.83
2018-10-19T06:10:19.352Z,86.23
2018-10-19T06:12:49.261Z,97.53
2018-10-19T06:15:19.396Z,85.73
2018-10-19T06:17:49.390Z,88.43
2018-10-19T06:20:19.272Z,97.27
2018-10-19T06:22:50.340Z,87.37
2018-10-19T06:25:20.143Z,99.03
2018-10-19T06:27:50.142Z,91.63
2018-10-19T06:30:20.148Z,87.90
2018-10-19T06:32:50.193Z,86.67
2018-10-19T06:35:20.255Z,84.33
2018-10-19T06:37:50.660Z,91.00
2018-10-19T06:40:20.732Z,81.17
2018-10-19T06:42:50.726Z,85.83
2018-10-19T06:45:20.774Z,86.83
2018-10-19T06:47:50.878Z,87.93
2018-10-19T06:50:20.865Z,83.13
2018-10-19T06:52:51.052Z,87.70
2018-10-19T06:55:21.044Z,92.80
2018-10-19T06:57:51.022Z,92.73
2018-10-19T07:00:21.173Z,106.33
2018-10-19T07:02:51.438Z,109.73
2018-10-19T07:05:21.443Z,110.63
2018-10-19T07:07:51.443Z,109.07
2018-10-19T07:10:21.843Z,101.00
2018-10-19T07:12:51.925Z,97.97
2018-10-19T07:15:21.854Z,84.37
2018-10-19T07:17:51.800Z,91.97
2018-10-19T07:20:21.989Z,91.67
2018-10-19T07:22:52.178Z,85.10
2018-10-19T07:25:22.440Z,92.77
2018-10-19T07:27:53.901Z,95.80
2018-10-19T07:30:24.016Z,102.60
2018-10-19T07:32:54.345Z,91.13
2018-10-19T07:35:25.192Z,89.37
2018-10-19T07:37:55.497Z,94.80
2018-10-19T07:40:26.559Z,100.80
2018-10-19T07:42:56.589Z,105.33
2018-10-19T07:45:26.665Z,115.03
2018-10-19T07:47:56.793Z,114.47
2018-10-19T07:50:26.914Z,125.80
2018-10-19T07:52:58.235Z,114.57
2018-10-19T07:55:28.147Z,112.57
2018-10-19T07:57:58.193Z,118.17
2018-10-19T08:00:28.227Z,118.27
2018-10-19T08:02:58.273Z,116.97
2018-10-19T08:05:28.624Z,110.90
2018-10-19T08:07:58.689Z,105.17
2018-10-19T08:10:28.758Z,105.37
2018-10-19T08:12:59.594Z,105.70
2018-10-19T08:15:29.776Z,95.77
2018-10-19T08:17:59.994Z,96.20
2018-10-19T08:20:30.601Z,99.13
2018-10-19T08:23:43.642Z,97.80
2018-10-19T08:26:14.016Z,88.70
2018-10-19T08:28:44.577Z,89.87
2018-10-19T08:31:14.583Z,87.97
2018-10-19T08:33:44.599Z,85.93
2018-10-19T08:36:15.549Z,81.70
2018-10-19T08:38:45.883Z,86.37
2018-10-19T08:41:26.888Z,79.83
2018-10-19T08:43:57.737Z,80.60
2018-10-19T08:46:32.941Z,81.90
2018-10-19T08:49:04.173Z,69.40
2018-10-19T08:51:34.896Z,71.70
2018-10-19T08:54:06.756Z,64.80
2018-10-19T08:56:36.781Z,59.17
2018-10-19T08:59:07.339Z,60.23
2018-10-19T09:01:37.344Z,61.57
2018-10-19T09:04:07.376Z,61.37
2018-10-19T09:06:37.453Z,56.70
2018-10-19T09:09:10.536Z,60.47
2018-10-19T09:11:41.004Z,63.10
2018-10-19T09:14:22.220Z,62.20
2018-10-19T09:16:52.638Z,64.97
2018-10-19T09:19:26.602Z,64.07
2018-10-19T09:21:56.723Z,68.77
2018-10-19T09:24:34.342Z,66.60
2018-10-19T09:27:05.978Z,68.73
2018-10-19T09:29:36.274Z,63.53
2018-10-19T09:32:06.281Z,65.23
2018-10-19T09:34:36.773Z,73.27
2018-10-19T09:37:08.579Z,68.40
2018-10-19T09:39:39.744Z,72.00
2018-10-19T09:42:10.520Z,70.37
2018-10-19T09:44:41.114Z,67.83
2018-10-19T09:47:11.314Z,67.00
2018-10-19T09:49:41.241Z,65.87
2018-10-19T09:52:11.716Z,68.63
2018-10-19T09:54:41.749Z,74.87
2018-10-19T09:57:12.122Z,72.63
2018-10-19T09:59:42.347Z,70.20
2018-10-19T10:04:37.863Z,72.83
2018-10-19T10:07:08.295Z,68.67
2018-10-19T10:09:39.708Z,62.70
2018-10-19T10:12:10.136Z,72.83
2018-10-19T10:14:42.051Z,67.20
2018-10-19T10:17:12.379Z,70.70
2018-10-19T10:19:43.355Z,64.93
2018-10-19T10:22:13.716Z,65.07
2018-10-19T10:24:44.209Z,75.23
2018-10-19T10:27:14.653Z,69.10
2018-10-19T10:29:44.740Z,69.73
2018-10-19T10:32:14.882Z,68.70
2018-10-19T10:34:44.870Z,65.73
2018-10-19T10:37:15.429Z,71.40
2018-10-19T10:39:46.074Z,70.30
2018-10-19T10:42:16.747Z,72.70
2018-10-19T10:44:47.165Z,67.03
2018-10-19T10:47:17.418Z,69.00
2018-10-19T10:49:47.346Z,74.57
2018-10-19T10:52:17.363Z,71.80
2018-10-19T10:54:47.564Z,74.17
2018-10-19T10:57:17.882Z,70.87
2018-10-19T10:59:47.881Z,64.27
2018-10-19T11:02:17.891Z,58.97
2018-10-19T11:04:48.313Z,66.17
2018-10-19T11:07:18.497Z,73.50
2018-10-19T11:09:49.128Z,64.50
2018-10-19T11:12:19.087Z,66.13
2018-10-19T11:14:49.460Z,68.00
2018-10-19T11:17:19.581Z,71.07
2018-10-19T11:19:51.864Z,66.80
2018-10-19T11:22:21.908Z,66.60
2018-10-19T11:24:51.792Z,69.63
2018-10-19T11:27:21.748Z,64.70
2018-10-19T11:29:51.690Z,69.83
2018-10-19T11:32:21.653Z,65.33
2018-10-19T11:34:51.818Z,66.90
2018-10-19T11:37:21.737Z,75.17
2018-10-19T11:40:03.819Z,74.57
2018-10-19T11:42:35.707Z,60.23
2018-10-19T11:45:06.308Z,65.33
2018-10-19T11:47:37.267Z,68.17
2018-10-19T11:50:07.765Z,63.73
2018-10-19T11:52:37.762Z,65.27
2018-10-19T11:55:08.216Z,69.57
2018-10-19T11:57:39.377Z,65.10
2018-10-19T12:00:10.286Z,62.57
2018-10-19T12:02:40.476Z,65.40
2018-10-19T12:05:10.627Z,61.90
2018-10-19T12:07:40.983Z,65.43
2018-10-19T12:10:12.094Z,69.57
2018-10-19T12:12:42.483Z,62.27
2018-10-19T12:15:13.668Z,65.47
2018-10-19T12:17:45.347Z,68.90
2018-10-19T12:20:17.386Z,62.70
2018-10-19T12:22:47.307Z,66.93
2018-10-19T12:25:17.636Z,62.50
2018-10-19T12:27:47.534Z,61.97
2018-10-19T12:30:17.536Z,59.17
2018-10-19T12:32:47.473Z,62.10
2018-10-19T12:35:17.784Z,62.27
2018-10-19T12:37:47.706Z,56.17
2018-10-19T12:40:17.773Z,61.57
2018-10-19T12:42:47.694Z,58.83
2018-10-19T12:46:37.633Z,58.50
2018-10-19T12:49:07.844Z,58.83
2018-10-19T12:51:37.872Z,57.87
2018-10-19T12:54:08.279Z,57.50
2018-10-19T12:56:38.709Z,62.37
2018-10-19T12:59:09.039Z,60.47
2018-10-19T13:01:39.048Z,61.23
2018-10-19T13:04:09.023Z,62.67
2018-10-19T13:06:40.555Z,53.67
2018-10-19T13:09:12.142Z,58.83
2018-10-19T13:11:42.167Z,58.93
2018-10-19T13:14:12.298Z,59.77
2018-10-19T13:16:42.196Z,58.17
2018-10-19T13:19:12.242Z,62.77
2018-10-19T13:21:42.228Z,59.17
2018-10-19T13:24:12.410Z,61.77
2018-10-19T13:26:42.253Z,63.73
2018-10-19T13:29:12.323Z,65.37
2018-10-19T13:31:42.356Z,55.10
2018-10-19T13:34:13.993Z,59.80
2018-10-19T13:36:44.397Z,56.13
2018-10-19T13:39:15.052Z,59.27
2018-10-19T13:42:04.040Z,55.53
2018-10-19T13:44:35.595Z,57.80
2018-10-19T13:47:06.228Z,59.70
2018-10-19T13:49:37.656Z,59.63
2018-10-19T13:52:07.816Z,58.60
2018-10-19T13:54:37.691Z,57.17
2018-10-19T13:57:07.753Z,51.67
2018-10-19T13:59:38.221Z,56.53
2018-10-19T14:02:09.227Z,60.93
2018-10-19T14:04:40.627Z,63.03
2018-10-19T14:07:10.876Z,62.57
2018-10-19T14:09:40.964Z,58.87
2018-10-19T14:12:10.992Z,61.37
2018-10-19T14:14:41.329Z,57.10
2018-10-19T14:17:11.680Z,56.87
2018-10-19T14:19:48.866Z,56.67
2018-10-19T14:22:19.425Z,57.00
2018-10-19T14:24:50.593Z,58.10
2018-10-19T14:27:20.737Z,54.33
2018-10-19T14:29:51.022Z,60.50
2018-10-19T14:32:20.858Z,51.10
2018-10-19T14:34:50.900Z,53.47
2018-10-19T14:37:21.293Z,54.27
2018-10-19T14:39:51.280Z,57.37
2018-10-19T15:09:47.824Z,51.40
2018-10-19T15:12:17.546Z,53.40
2018-10-19T15:14:47.701Z,49.63
2018-10-19T15:17:17.578Z,54.83
2018-10-19T15:19:47.422Z,53.47
2018-10-19T15:22:17.367Z,50.50
2018-10-19T15:24:47.164Z,53.97
2018-10-19T15:27:17.207Z,54.23
2018-10-19T15:29:48.663Z,60.77
2018-10-19T15:32:18.552Z,54.43
2018-10-19T15:34:48.487Z,56.33
2018-10-19T15:37:18.474Z,49.63
2018-10-19T15:39:48.399Z,59.20
2018-10-19T15:42:18.415Z,55.47
2018-10-19T15:44:48.602Z,55.07
2018-10-19T15:47:18.603Z,53.33
2018-10-19T15:49:48.815Z,54.47
2018-10-19T15:52:18.676Z,54.20
2018-10-19T15:54:48.857Z,56.80
2018-10-19T15:57:18.914Z,50.10
2018-10-19T15:59:48.870Z,58.17
2018-10-19T16:02:18.924Z,58.63
2018-10-19T16:04:49.732Z,58.80
2018-10-19T16:07:20.009Z,60.30
2018-10-19T16:09:50.008Z,53.17
2018-10-19T16:12:21.473Z,57.60
2018-10-19T16:14:51.569Z,57.70
2018-10-19T16:17:21.588Z,55.80
2018-10-19T16:19:51.617Z,59.13
2018-10-19T16:22:21.656Z,61.10
2018-10-19T16:24:51.653Z,56.53
2018-10-19T16:27:21.860Z,63.80
2018-10-19T16:29:51.927Z,59.70
2018-10-19T16:32:21.897Z,54.63
2018-10-19T16:34:51.927Z,55.93
2018-10-19T16:37:21.860Z,52.23
2018-10-19T16:39:51.797Z,56.13
2018-10-19T16:42:23.172Z,50.17
2018-10-19T16:44:53.179Z,53.10
2018-10-19T16:47:23.230Z,55.37
2018-10-19T16:49:53.483Z,55.73
2018-10-19T16:52:23.503Z,52.23
2018-10-19T16:54:53.291Z,51.40
2018-10-19T16:57:23.688Z,56.57
2018-10-19T16:59:53.663Z,52.87
2018-10-19T17:02:23.628Z,56.63
2018-10-19T17:04:57.217Z,51.20
2018-10-19T17:07:29.433Z,58.20
2018-10-19T17:10:00.848Z,64.77
2018-10-19T17:12:33.238Z,61.87
2018-10-19T17:15:03.427Z,69.90
2018-10-19T17:17:33.349Z,68.93
2018-10-19T17:20:08.434Z,67.80
2018-10-19T17:22:39.798Z,64.43
2018-10-19T17:25:13.187Z,74.17
2018-10-19T17:27:45.165Z,81.33
2018-10-19T17:30:18.713Z,72.17
2018-10-19T17:32:49.606Z,68.70
2018-10-19T17:35:21.432Z,65.10
2018-10-19T17:37:51.473Z,62.60
2018-10-19T17:40:21.426Z,64.50
2018-10-19T17:42:51.607Z,61.50
2018-10-19T17:45:25.000Z,63.63
2018-10-19T17:47:59.060Z,69.90
2018-10-19T17:50:31.375Z,64.03
2018-10-19T17:53:15.464Z,68.17
2018-10-19T17:55:45.667Z,67.33
2018-10-19T17:58:15.820Z,61.57
2018-10-19T18:00:45.999Z,68.20
2018-10-19T18:03:16.238Z,64.17
2018-10-19T18:05:59.447Z,71.73
2018-10-19T18:08:29.990Z,72.13
2018-10-19T18:11:01.863Z,68.93
2018-10-19T18:13:31.972Z,71.73
2018-10-19T18:16:03.644Z,78.40
2018-10-19T18:18:33.632Z,72.97
2018-10-19T18:21:03.705Z,71.43
2018-10-19T18:23:33.895Z,72.10
2018-10-19T18:26:04.109Z,72.60
2018-10-19T18:28:34.998Z,73.83
2018-10-19T18:31:05.392Z,75.70
2018-10-19T18:33:35.354Z,72.67
2018-10-19T18:36:05.759Z,75.03
2018-10-19T18:38:36.040Z,67.63
2018-10-19T18:41:07.960Z,69.80
2018-10-19T18:43:38.726Z,71.40
2018-10-19T18:46:11.170Z,72.87
2018-10-19T18:48:41.329Z,75.80
2018-10-19T18:51:12.539Z,75.07
2018-10-19T18:53:43.066Z,70.27
2018-10-19T18:56:15.633Z,79.87
2018-10-19T18:58:46.976Z,81.87
2018-10-19T19:01:20.583Z,78.67
2018-10-19T19:03:51.881Z,88.97
2018-10-19T19:06:22.257Z,90.20
2018-10-19T19:08:52.890Z,82.77
2018-10-19T19:11:24.139Z,88.23
2018-10-19T19:13:55.581Z,85.50
2018-10-19T19:16:30.999Z,79.87
2018-10-19T19:19:01.216Z,84.67
2018-10-19T19:21:31.992Z,81.90
2018-10-19T19:24:08.766Z,84.73
2018-10-19T19:26:39.500Z,79.67
2018-10-19T19:29:09.761Z,84.73
2018-10-19T19:31:45.492Z,93.13
2018-10-19T19:34:25.411Z,92.50
2018-10-19T19:36:59.902Z,97.67
2018-10-19T19:39:30.856Z,99.97
2018-10-19T19:42:06.832Z,96.33
2018-10-19T19:44:36.864Z,96.37
2018-10-19T19:47:07.192Z,100.10
2018-10-19T19:49:39.104Z,97.67
2018-10-19T19:52:09.090Z,95.00
2018-10-19T19:54:39.155Z,97.37
2018-10-19T19:57:09.261Z,105.07
2018-10-19T19:59:39.176Z,93.67
2018-10-19T20:02:09.094Z,98.47
2018-10-19T20:04:39.268Z,103.70
2018-10-19T20:07:09.072Z,99.60
2018-10-19T20:09:38.972Z,101.23
2018-10-19T20:12:09.146Z,97.80
2018-10-19T20:14:39.079Z,96.23
2018-10-19T20:17:09.138Z,99.20
2018-10-19T20:19:39.420Z,101.87
2018-10-19T20:22:09.267Z,103.30
2018-10-19T20:24:39.318Z,108.80
2018-10-19T20:27:09.427Z,103.20
2018-10-19T20:29:39.429Z,107.07
2018-10-19T20:32:09.741Z,101.17
2018-10-19T20:34:39.644Z,100.73
2018-10-19T20:37:09.575Z,108.27
2018-10-19T20:39:40.853Z,105.50
2018-10-19T20:42:11.075Z,98.40
2018-10-19T20:44:41.466Z,101.77
2018-10-19T20:47:12.376Z,99.23
2018-10-19T20:49:43.154Z,96.07
2018-10-19T20:52:13.132Z,95.40
2018-10-19T20:54:42.990Z,97.43
2018-10-19T20:57:15.734Z,105.70
2018-10-19T20:59:45.535Z,102.93
2018-10-19T21:02:15.295Z,105.50
2018-10-19T21:04:45.112Z,103.23
2018-10-19T21:07:15.010Z,101.07
2018-10-19T21:09:44.745Z,107.27
2018-10-19T21:12:14.756Z,110.77
2018-10-19T21:14:45.104Z,111.03
2018-10-19T21:17:14.980Z,114.90
2018-10-19T21:19:46.036Z,109.90
2018-10-19T21:22:15.839Z,109.80
2018-10-19T21:24:45.653Z,114.10
2018-10-19T21:27:15.517Z,113.50
2018-10-19T21:29:45.555Z,113.27
2018-10-19T21:32:15.383Z,110.87
2018-10-19T21:34:45.162Z,109.10
2018-10-19T21:37:15.055Z,109.93
2018-10-19T21:39:44.917Z,107.60
2018-10-19T21:42:14.720Z,107.63
2018-10-19T21:44:44.910Z,109.43
2018-10-19T21:47:14.917Z,115.40
2018-10-19T21:49:44.647Z,114.83
2018-10-19T21:52:14.445Z,119.10
2018-10-19T21:54:44.618Z,110.27
2018-10-19T21:57:14.576Z,116.60
2018-10-19T21:59:44.468Z,112.87
2018-10-19T22:02:14.201Z,113.07
2018-10-19T22:04:43.916Z,117.10
2018-10-19T22:07:13.623Z,116.37
2018-10-19T22:09:43.824Z,104.47
2018-10-19T22:12:13.647Z,104.83
2018-10-19T22:14:43.351Z,97.63
2018-10-19T22:17:13.255Z,103.17
2018-10-19T22:19:43.399Z,108.30
2018-10-19T22:22:13.218Z,110.57
2018-10-19T22:24:43.462Z,111.83
2018-10-19T22:27:13.302Z,119.93
2018-10-19T22:29:43.211Z,116.23
2018-10-19T22:32:14.339Z,128.10
2018-10-19T22:34:44.288Z,121.57
2018-10-19T22:37:14.167Z,135.53
2018-10-19T22:39:44.064Z,115.37
2018-10-19T22:42:13.740Z,115.43
2018-10-19T22:44:43.478Z,119.70
2018-10-19T22:47:13.394Z,122.07
2018-10-19T22:49:43.049Z,116.97
2018-10-19T22:52:12.867Z,112.03
2018-10-19T22:54:42.847Z,114.07
2018-10-19T22:57:12.560Z,119.53
2018-10-19T22:59:43.206Z,127.83
2018-10-19T23:02:14.181Z,131.40
2018-10-19T23:04:57.138Z,139.43
2018-10-19T23:07:27.489Z,139.50
2018-10-19T23:09:58.479Z,134.67
2018-10-19T23:12:39.084Z,130.63
2018-10-19T23:15:10.024Z,133.93
2018-10-19T23:17:40.195Z,121.03
2018-10-19T23:20:10.444Z,119.63
2018-10-19T23:22:40.820Z,118.67
2018-10-19T23:25:10.581Z,105.60
2018-10-19T23:27:40.326Z,110.47
2018-10-19T23:30:10.136Z,117.40
2018-10-19T23:32:39.878Z,118.80
2018-10-19T23:35:10.094Z,127.67
2018-10-19T23:37:39.880Z,138.97
2018-10-19T23:40:13.180Z,129.90
2018-10-19T23:42:45.855Z,128.07
2018-10-19T23:45:17.969Z,125.33
2018-10-19T23:47:47.721Z,124.00
2018-10-19T23:50:17.514Z,113.80
2018-10-19T23:52:47.281Z,123.90
2018-10-19T23:55:17.220Z,124.20
2018-10-19T23:57:47.397Z,124.93
